Hovedside
METAR-TAF:

METAR-TAF

Lufthavner :

Jakarta, Java, Indonesia

breddegrad: 06-07S, lengdegrad: 106-39E, høyde over havet: 8 m

Gjeldene værobservasjon

Denne rapporten ble laget for 31 minutter siden, klokken 19:00 UTC
Vind 3 kt fra Sør
Temperatur 28°C
Luftfuktighet 79%
Trykk 1008 hPa
Sikt: 8000 m
Spredte skyer i en høyde av 2000 ft

METAR: WIII 241900Z 17003KT 8000 SCT020 28/24 Q1008 NOSIG

Tid: 02:31 (19:31 UTC)

Varsel

Denne rapporten ble laget for 2 timer og 31 minutter siden, klokken 17:00 UTC
Varsel gyldig fra 24. klokken 18 UTC til 26. klokken 00 UTC
Vind 5 kt fra Sørøst
Sikt: 5000 m
Spredte skyer i en høyde av 2000 ft
dis
Blir
fra 25. klokken 00 UTC til 25. klokken 02 UTC
Vind 2 kt fra skiftende retning
Sikt: 8000 m
Blir
fra 25. klokken 05 UTC til 25. klokken 07 UTC
Vind 12 kt fra Nordøst

TAF: WIII 241700Z 2418/2600 13005KT 5000 HZ SCT020 BECMG 2500/2502 VRB02KT 8000 NSW BECMG 2505/2507 05012KT

Værobservasjoner og værvarsel for over 4000 flyplasser (METAR- og TAF-rapporter).

Tilgjengelige stasjoner er representert av de røde og gule prikkene på kartet.

Hold musepekeren over prikken for å se navnet på stasjonen.

Klikk så for å se værobservasjoner og -varsler.

For å forandre kartet kan du klikke på den grønne knappen med svart kryss for å zoome inn, på den grønne knappen med strek for å zoome ut, eller på de grønne pilene for å se tilstøtende kart.


METAR-TAF: